Time;durP1;ratioP1;P1;durP2;ratioP2;P2;SDS_P1;SDS_P2;PMS_P1;PMS_P2;Temp;Humidity;BMP_temperature;BMP_pressure;BME280_temperature;BME280_humidity;BME280_pressure;Samples;Min_cycle;Max_cycle;Signal;HPM_P1;HPM_P2
2023/05/11 00:02:11;;;;;;;17.67;11.77;;;12.00;99.90;;;;;;6238275;22;20183;-66
2023/05/11 00:04:38;;;;;;;21.83;12.68;;;12.00;99.90;;;;;;6225881;22;20822;-66
2023/05/11 00:07:05;;;;;;;21.90;12.38;;;12.00;99.90;;;;;;6247893;22;20808;-66
2023/05/11 00:09:32;;;;;;;20.60;12.50;;;12.00;99.90;;;;;;6246856;22;20779;-66
2023/05/11 00:12:00;;;;;;;17.92;12.13;;;12.00;99.90;;;;;;6241614;22;20180;-66
2023/05/11 00:14:27;;;;;;;18.77;12.95;;;12.00;99.90;;;;;;6245017;22;20195;-66
2023/05/11 00:16:54;;;;;;;16.60;11.48;;;12.00;99.90;;;;;;6246003;22;20176;-66
2023/05/11 00:19:20;;;;;;;20.63;12.43;;;12.00;99.90;;;;;;6238940;22;20196;-66
2023/05/11 00:21:47;;;;;;;20.83;12.32;;;12.00;99.90;;;;;;6233173;22;20200;-66
2023/05/11 00:24:14;;;;;;;20.02;12.55;;;12.00;99.90;;;;;;6235641;22;20357;-66
2023/05/11 00:26:41;;;;;;;19.77;11.93;;;12.00;99.90;;;;;;6249099;22;20503;-66
2023/05/11 00:29:09;;;;;;;18.25;12.20;;;12.00;99.90;;;;;;6230795;22;20449;-66
2023/05/11 00:31:36;;;;;;;19.02;12.18;;;12.00;99.90;;;;;;6250220;22;20475;-66
2023/05/11 00:34:03;;;;;;;20.20;13.13;;;11.90;99.90;;;;;;6236688;22;20172;-66
2023/05/11 00:36:29;;;;;;;20.48;12.65;;;11.90;99.90;;;;;;6232505;22;20176;-66
2023/05/11 00:38:56;;;;;;;21.02;13.18;;;11.90;99.90;;;;;;6245439;22;20227;-66
2023/05/11 00:41:23;;;;;;;21.67;13.50;;;11.90;99.90;;;;;;6248531;22;20172;-66
2023/05/11 00:43:50;;;;;;;23.13;12.75;;;11.80;99.90;;;;;;6237945;22;20262;-66
2023/05/11 00:46:18;;;;;;;24.60;13.07;;;11.80;99.90;;;;;;6244652;22;20179;-66
2023/05/11 00:48:45;;;;;;;23.13;13.40;;;11.90;99.90;;;;;;6248549;22;20179;-66
2023/05/11 00:51:13;;;;;;;23.38;13.88;;;11.80;99.90;;;;;;6238603;22;20303;-66
2023/05/11 00:53:40;;;;;;;22.75;12.15;;;11.80;99.90;;;;;;6227660;22;20183;-66
2023/05/11 00:56:08;;;;;;;26.38;13.45;;;11.70;99.90;;;;;;6244014;22;20479;-66
2023/05/11 00:58:35;;;;;;;24.92;13.88;;;11.80;99.90;;;;;;6236593;22;20172;-66
2023/05/11 01:01:02;;;;;;;30.27;15.52;;;11.80;99.90;;;;;;6237155;22;20303;-66
2023/05/11 01:03:30;;;;;;;29.05;15.75;;;11.80;99.90;;;;;;6249670;22;20532;-66
2023/05/11 01:06:05;;;;;;;30.23;15.07;;;11.80;99.90;;;;;;6236368;22;20271;-66
2023/05/11 01:08:40;;;;;;;27.30;16.10;;;11.70;99.90;;;;;;6232034;22;20175;-66
2023/05/11 01:11:12;;;;;;;30.38;17.10;;;11.80;99.90;;;;;;6245269;22;20412;-66
2023/05/11 01:13:43;;;;;;;39.35;18.15;;;11.80;99.90;;;;;;6249937;22;20172;-66
2023/05/11 01:16:18;;;;;;;35.78;16.42;;;11.70;99.90;;;;;;6232289;22;20172;-66
2023/05/11 01:18:52;;;;;;;31.77;15.07;;;11.70;99.90;;;;;;6249248;22;20202;-66
2023/05/11 01:21:19;;;;;;;34.28;14.85;;;11.80;99.90;;;;;;6249768;22;20183;-66
2023/05/11 01:24:20;;;;;;;33.13;15.32;;;11.80;99.90;;;;;;6222160;22;20196;-66
2023/05/11 01:27:07;;;;;;;36.53;16.38;;;11.70;99.90;;;;;;6242964;22;20480;-66
2023/05/11 01:29:45;;;;;;;33.83;15.10;;;11.70;99.90;;;;;;6240252;22;20179;-66
2023/05/11 01:32:19;;;;;;;30.23;14.52;;;11.70;99.90;;;;;;6243459;22;20396;-67
2023/05/11 01:34:47;;;;;;;28.85;14.73;;;11.70;99.90;;;;;;6247403;22;20815;-66
2023/05/11 01:37:17;;;;;;;30.30;15.60;;;11.70;99.90;;;;;;6238888;22;20172;-66
2023/05/11 01:39:51;;;;;;;30.00;14.93;;;11.70;99.90;;;;;;6219847;22;20475;-66
2023/05/11 01:42:21;;;;;;;30.08;15.93;;;11.70;99.90;;;;;;6237275;22;20508;-66
2023/05/11 01:44:52;;;;;;;26.70;15.52;;;11.70;99.90;;;;;;6240797;22;20673;-66
2023/05/11 01:47:22;;;;;;;32.55;16.00;;;11.80;99.90;;;;;;6244426;22;20172;-66
2023/05/11 01:49:51;;;;;;;30.27;16.75;;;11.80;99.90;;;;;;6249011;22;20386;-66
2023/05/11 01:52:21;;;;;;;27.05;15.75;;;11.80;99.90;;;;;;6246547;22;20180;-66
2023/05/11 01:54:50;;;;;;;29.08;15.63;;;11.70;99.90;;;;;;6223752;22;20186;-66
2023/05/11 01:57:18;;;;;;;27.45;15.15;;;11.70;99.90;;;;;;6238127;22;20176;-66
2023/05/11 01:59:46;;;;;;;30.85;16.10;;;11.60;99.90;;;;;;6248656;22;20214;-66
2023/05/11 02:02:14;;;;;;;31.13;16.60;;;11.50;99.90;;;;;;6233185;22;20172;-66
2023/05/11 02:04:43;;;;;;;29.17;15.68;;;11.50;99.90;;;;;;6247021;22;20173;-66
2023/05/11 02:07:12;;;;;;;30.52;15.63;;;11.60;99.90;;;;;;6247126;22;20540;-66
2023/05/11 02:09:40;;;;;;;30.95;16.42;;;11.60;99.90;;;;;;6221614;22;20503;-66
2023/05/11 02:12:08;;;;;;;29.30;15.77;;;11.60;99.90;;;;;;6248249;22;20176;-66
2023/05/11 02:14:36;;;;;;;28.92;16.30;;;11.60;99.90;;;;;;6246518;22;20490;-66
2023/05/11 02:17:04;;;;;;;33.65;15.75;;;11.60;99.90;;;;;;6238251;22;20172;-66
2023/05/11 02:19:33;;;;;;;29.90;14.85;;;11.60;99.90;;;;;;6245923;22;20196;-66
2023/05/11 02:22:03;;;;;;;30.48;14.23;;;11.50;99.90;;;;;;6243416;22;20200;-66
2023/05/11 02:24:31;;;;;;;29.45;15.88;;;11.50;99.90;;;;;;6241489;22;20172;-66
2023/05/11 02:26:58;;;;;;;33.35;16.38;;;11.50;99.90;;;;;;6239896;22;20182;-66
2023/05/11 02:29:25;;;;;;;32.15;17.00;;;11.50;99.90;;;;;;6248711;22;20222;-66
2023/05/11 02:31:57;;;;;;;31.85;15.43;;;11.50;99.90;;;;;;6236399;22;20185;-66
2023/05/11 02:34:28;;;;;;;33.17;17.10;;;11.50;99.90;;;;;;6247838;22;20182;-66
2023/05/11 02:36:59;;;;;;;31.60;16.30;;;11.50;99.90;;;;;;6244735;22;20386;-66
2023/05/11 02:39:33;;;;;;;32.22;17.08;;;11.40;99.90;;;;;;6246020;22;20199;-66
2023/05/11 02:42:06;;;;;;;34.63;15.95;;;11.40;99.90;;;;;;6226931;22;20266;-66
2023/05/11 02:44:36;;;;;;;34.03;14.95;;;11.30;99.90;;;;;;6238202;22;20531;-66
2023/05/11 02:47:04;;;;;;;29.38;15.35;;;11.30;99.90;;;;;;6238761;22;20177;-66
2023/05/11 02:49:32;;;;;;;37.35;15.65;;;11.30;99.90;;;;;;6240003;22;20194;-66
2023/05/11 02:52:01;;;;;;;33.13;16.30;;;11.40;99.90;;;;;;6246797;22;20198;-66
2023/05/11 02:54:30;;;;;;;29.35;15.23;;;11.40;99.90;;;;;;6248689;22;20203;-66
2023/05/11 02:56:58;;;;;;;32.70;16.75;;;11.40;99.90;;;;;;6228570;22;20250;-66
2023/05/11 02:59:25;;;;;;;33.05;16.60;;;11.40;99.90;;;;;;6247483;22;20289;-66
2023/05/11 03:01:53;;;;;;;34.83;16.10;;;11.40;99.90;;;;;;6235906;22;20198;-66
2023/05/11 03:04:20;;;;;;;32.22;16.85;;;11.40;99.90;;;;;;6245325;22;20737;-66
2023/05/11 03:06:47;;;;;;;33.80;17.25;;;11.30;99.90;;;;;;6235751;22;20421;-66
2023/05/11 03:09:13;;;;;;;31.88;15.73;;;11.40;99.90;;;;;;6243296;22;20183;-66
2023/05/11 03:11:43;;;;;;;34.25;16.30;;;11.30;99.90;;;;;;6224671;22;20479;-66
2023/05/11 03:14:09;;;;;;;31.35;16.67;;;11.30;99.90;;;;;;6243302;22;20207;-66
2023/05/11 03:16:37;;;;;;;27.60;15.00;;;11.40;99.90;;;;;;6235509;22;20662;-66
2023/05/11 03:19:06;;;;;;;29.05;16.17;;;11.30;99.90;;;;;;6243997;22;20554;-66
2023/05/11 03:21:36;;;;;;;27.80;15.40;;;11.40;99.90;;;;;;6247010;22;20838;-66
2023/05/11 03:24:04;;;;;;;22.60;14.20;;;11.40;99.90;;;;;;6246499;22;20172;-66
2023/05/11 03:26:33;;;;;;;27.17;14.75;;;11.40;99.90;;;;;;6239984;22;20173;-66
2023/05/11 03:29:02;;;;;;;26.00;15.15;;;11.40;99.90;;;;;;6240095;22;20276;-66
2023/05/11 03:31:29;;;;;;;29.83;15.73;;;11.40;99.90;;;;;;6244827;22;20180;-66
2023/05/11 03:33:57;;;;;;;31.88;16.90;;;11.40;99.90;;;;;;6236596;22;20590;-66
2023/05/11 03:36:25;;;;;;;25.95;15.63;;;11.40;99.90;;;;;;6246472;22;20176;-66
2023/05/11 03:38:55;;;;;;;29.92;16.27;;;11.40;99.90;;;;;;6242735;22;20555;-66
2023/05/11 03:41:24;;;;;;;25.25;14.65;;;11.40;99.90;;;;;;6243019;22;20203;-66
2023/05/11 03:43:52;;;;;;;28.65;14.70;;;11.40;99.90;;;;;;6223163;22;20387;-66
2023/05/11 03:46:22;;;;;;;28.73;15.60;;;11.40;99.90;;;;;;6247192;22;20241;-66
2023/05/11 03:48:49;;;;;;;27.45;15.70;;;11.40;99.90;;;;;;6233081;22;21082;-66
2023/05/11 03:51:16;;;;;;;27.80;15.07;;;11.40;99.90;;;;;;6247485;22;20172;-66
2023/05/11 03:53:43;;;;;;;28.13;15.05;;;11.50;99.90;;;;;;6242145;22;20203;-66
2023/05/11 03:56:10;;;;;;;28.27;15.13;;;11.40;99.90;;;;;;6249079;22;20182;-66
2023/05/11 03:58:39;;;;;;;26.58;14.38;;;11.40;99.90;;;;;;6231681;22;20643;-66
2023/05/11 04:01:07;;;;;;;23.65;13.55;;;11.40;99.90;;;;;;6247072;22;20625;-66
2023/05/11 04:03:35;;;;;;;23.02;14.00;;;11.50;99.90;;;;;;6237521;22;20257;-66
2023/05/11 04:06:02;;;;;;;22.80;13.40;;;11.40;99.90;;;;;;6232056;22;20192;-66
2023/05/11 04:08:29;;;;;;;22.10;13.50;;;11.40;99.90;;;;;;6242025;22;20374;-66
2023/05/11 04:10:56;;;;;;;23.92;12.98;;;11.50;99.90;;;;;;6249750;22;20279;-66
2023/05/11 04:13:23;;;;;;;19.48;12.15;;;11.50;99.90;;;;;;6223005;22;20388;-66
2023/05/11 04:15:49;;;;;;;20.98;12.07;;;11.40;99.90;;;;;;6227274;22;20180;-66
2023/05/11 04:18:16;;;;;;;22.40;12.68;;;11.40;99.90;;;;;;6240103;22;20172;-66
2023/05/11 04:20:44;;;;;;;18.75;12.35;;;11.40;99.90;;;;;;6238411;22;20204;-66
2023/05/11 04:23:11;;;;;;;22.95;12.32;;;11.40;99.90;;;;;;6248762;22;20200;-66
2023/05/11 04:25:38;;;;;;;15.52;10.38;;;11.50;99.90;;;;;;6249966;22;20218;-66
2023/05/11 04:28:05;;;;;;;15.27;9.85;;;11.40;99.90;;;;;;6243626;22;20196;-66
2023/05/11 04:30:32;;;;;;;16.10;10.10;;;11.40;99.90;;;;;;6221526;22;20180;-66
2023/05/11 04:32:59;;;;;;;14.13;9.82;;;11.40;99.90;;;;;;6248102;22;20199;-66
2023/05/11 04:35:25;;;;;;;17.52;9.45;;;11.40;99.90;;;;;;6235579;22;20655;-66
2023/05/11 04:37:54;;;;;;;14.88;9.73;;;11.40;99.90;;;;;;6247927;22;20172;-66
2023/05/11 04:40:20;;;;;;;15.65;9.07;;;11.40;99.90;;;;;;6241489;22;20204;-66
2023/05/11 04:42:47;;;;;;;14.70;9.07;;;11.40;99.90;;;;;;6245312;22;20301;-66
2023/05/11 04:45:14;;;;;;;16.45;9.50;;;11.50;99.90;;;;;;6224132;22;20200;-66
2023/05/11 04:47:41;;;;;;;16.38;10.63;;;11.40;99.90;;;;;;6246050;22;20691;-66
2023/05/11 04:50:08;;;;;;;16.63;9.40;;;11.40;99.90;;;;;;6246493;22;20180;-66
2023/05/11 04:52:35;;;;;;;16.13;10.13;;;11.30;99.90;;;;;;6243053;22;20388;-66
2023/05/11 04:55:04;;;;;;;15.98;9.57;;;11.40;99.90;;;;;;6244789;22;20238;-66
2023/05/11 04:57:30;;;;;;;18.33;9.57;;;11.30;99.90;;;;;;6241614;22;20231;-66
2023/05/11 04:59:57;;;;;;;27.20;9.68;;;11.30;99.90;;;;;;6221767;22;20460;-66
2023/05/11 05:02:24;;;;;;;19.92;9.60;;;11.30;99.90;;;;;;6221499;22;20212;-66
2023/05/11 05:04:51;;;;;;;17.55;9.38;;;11.30;99.90;;;;;;6215904;22;20416;-65
2023/05/11 05:07:17;;;;;;;18.17;9.98;;;11.30;99.90;;;;;;6219178;22;20196;-66
2023/05/11 05:09:44;;;;;;;17.48;9.30;;;11.30;99.90;;;;;;6235236;22;20196;-66
2023/05/11 05:12:12;;;;;;;13.70;9.00;;;11.40;99.90;;;;;;6233865;22;20901;-66
2023/05/11 05:14:39;;;;;;;12.57;7.75;;;11.40;99.90;;;;;;6245058;22;20204;-66
2023/05/11 05:17:06;;;;;;;10.90;8.45;;;11.40;99.90;;;;;;6211316;22;20192;-66
2023/05/11 05:19:33;;;;;;;11.15;7.95;;;11.40;99.90;;;;;;6236508;22;20196;-65
2023/05/11 05:21:59;;;;;;;13.63;8.30;;;11.40;99.90;;;;;;6235775;22;20210;-66
2023/05/11 05:24:26;;;;;;;12.85;7.20;;;11.50;99.90;;;;;;6251856;22;20184;-66
2023/05/11 05:26:53;;;;;;;11.57;7.07;;;11.50;99.90;;;;;;6239800;22;20227;-66
2023/05/11 05:29:21;;;;;;;11.63;7.32;;;11.50;99.90;;;;;;6248965;22;20392;-66
2023/05/11 05:31:48;;;;;;;13.18;8.25;;;11.50;99.90;;;;;;6247881;22;20523;-66
2023/05/11 05:34:15;;;;;;;15.40;8.20;;;11.50;99.90;;;;;;6224320;22;20507;-66
2023/05/11 05:36:42;;;;;;;10.57;7.28;;;11.70;99.90;;;;;;6239951;22;20172;-66
2023/05/11 05:39:10;;;;;;;10.20;7.30;;;11.70;99.90;;;;;;6236832;22;20417;-66
2023/05/11 05:41:37;;;;;;;8.52;6.38;;;11.70;99.90;;;;;;6250094;22;20211;-66
2023/05/11 05:44:04;;;;;;;11.32;7.68;;;11.70;99.90;;;;;;6245401;22;20172;-66
2023/05/11 05:46:32;;;;;;;12.40;8.10;;;11.70;99.90;;;;;;6252184;22;20172;-66
2023/05/11 05:48:59;;;;;;;10.60;6.95;;;11.60;99.90;;;;;;6231014;22;20183;-66
2023/05/11 05:51:26;;;;;;;12.48;7.18;;;11.60;99.90;;;;;;6236919;22;20596;-66
2023/05/11 05:53:52;;;;;;;11.07;7.55;;;11.70;99.90;;;;;;6240460;22;20231;-66
2023/05/11 05:56:20;;;;;;;11.38;7.82;;;11.70;99.90;;;;;;6249794;22;20541;-66
2023/05/11 05:58:47;;;;;;;10.10;7.70;;;11.70;99.90;;;;;;6253020;22;20177;-66
2023/05/11 06:01:14;;;;;;;13.25;7.70;;;11.70;99.90;;;;;;6247130;22;20756;-66
2023/05/11 06:03:43;;;;;;;10.68;7.68;;;11.70;99.90;;;;;;6216315;22;20934;-66
2023/05/11 06:06:10;;;;;;;13.27;7.53;;;11.80;99.90;;;;;;6225344;22;20176;-66
2023/05/11 06:08:37;;;;;;;12.38;8.15;;;11.80;99.90;;;;;;6222995;22;20172;-66
2023/05/11 06:11:04;;;;;;;12.55;8.02;;;11.80;99.90;;;;;;6251333;22;20176;-66
2023/05/11 06:13:31;;;;;;;14.95;8.15;;;11.80;99.90;;;;;;6231215;22;20273;-65
2023/05/11 06:15:58;;;;;;;11.52;8.15;;;11.90;99.90;;;;;;6250340;22;20192;-65
2023/05/11 06:18:25;;;;;;;11.75;7.60;;;11.90;99.90;;;;;;6234574;22;20220;-66
2023/05/11 06:20:54;;;;;;;9.88;7.03;;;11.80;99.90;;;;;;6226602;22;20207;-66
2023/05/11 06:23:21;;;;;;;9.93;6.45;;;11.80;99.90;;;;;;6227143;22;20760;-66
2023/05/11 06:25:48;;;;;;;12.50;7.80;;;11.80;99.90;;;;;;6243143;22;20176;-66
2023/05/11 06:28:14;;;;;;;10.90;7.00;;;11.90;99.90;;;;;;6248346;22;20262;-66
2023/05/11 06:30:41;;;;;;;10.68;7.18;;;11.90;99.90;;;;;;6236061;22;20608;-66
2023/05/11 06:33:08;;;;;;;10.45;7.15;;;11.90;99.90;;;;;;6236913;22;20666;-67
2023/05/11 06:35:36;;;;;;;13.23;8.07;;;12.00;99.90;;;;;;6224609;22;20639;-67
2023/05/11 06:38:04;;;;;;;11.27;7.68;;;12.00;99.90;;;;;;6233135;22;20245;-68
2023/05/11 06:40:31;;;;;;;10.85;7.88;;;12.00;99.90;;;;;;6238080;22;20597;-67
2023/05/11 06:42:58;;;;;;;11.95;7.97;;;12.00;99.90;;;;;;6248440;22;20176;-68
2023/05/11 06:45:25;;;;;;;14.02;8.32;;;12.00;99.90;;;;;;6245552;22;20316;-67
2023/05/11 06:47:52;;;;;;;13.00;7.88;;;12.10;99.90;;;;;;6247794;22;20229;-67
2023/05/11 06:50:18;;;;;;;13.25;7.60;;;12.00;99.90;;;;;;6232138;22;20343;-67
2023/05/11 06:52:45;;;;;;;10.68;7.43;;;12.00;99.90;;;;;;6212338;22;20294;-67
2023/05/11 06:55:14;;;;;;;11.60;7.38;;;12.00;99.90;;;;;;6235135;22;20229;-67
2023/05/11 06:57:40;;;;;;;10.40;7.60;;;12.00;99.90;;;;;;6238621;22;20589;-67
2023/05/11 07:00:08;;;;;;;10.40;7.35;;;12.00;99.90;;;;;;6244538;22;20235;-67
2023/05/11 07:02:35;;;;;;;12.55;8.05;;;12.00;99.90;;;;;;6241902;22;20226;-67
2023/05/11 07:05:02;;;;;;;14.55;8.75;;;12.00;99.90;;;;;;6245750;22;20223;-67
2023/05/11 07:07:29;;;;;;;12.05;8.10;;;12.00;99.90;;;;;;6230939;22;20500;-67
2023/05/11 07:09:56;;;;;;;12.77;8.07;;;12.00;99.90;;;;;;6229429;22;20227;-67
2023/05/11 07:12:25;;;;;;;13.68;8.65;;;12.10;99.90;;;;;;6240630;22;20294;-67
2023/05/11 07:14:51;;;;;;;15.02;9.65;;;12.10;99.90;;;;;;6246333;22;20196;-67
2023/05/11 07:17:18;;;;;;;15.63;9.32;;;12.10;99.90;;;;;;6238072;22;20722;-67
2023/05/11 07:19:45;;;;;;;12.93;8.90;;;12.10;99.90;;;;;;6246446;22;20212;-67
2023/05/11 07:22:12;;;;;;;13.02;8.30;;;12.20;99.90;;;;;;6231070;22;20243;-68
2023/05/11 07:24:39;;;;;;;11.20;7.60;;;12.20;99.90;;;;;;6220606;22;20469;-67
2023/05/11 07:27:06;;;;;;;14.43;9.02;;;12.30;99.90;;;;;;6237936;22;20413;-68
2023/05/11 07:29:34;;;;;;;13.95;9.10;;;12.20;99.90;;;;;;6250622;22;20305;-68
2023/05/11 07:32:01;;;;;;;13.77;8.98;;;12.20;99.90;;;;;;6235216;22;21165;-68
2023/05/11 07:34:27;;;;;;;11.98;8.35;;;12.20;99.90;;;;;;6249679;22;20179;-67
2023/05/11 07:36:54;;;;;;;15.40;7.70;;;12.30;99.90;;;;;;6222727;22;20212;-68
2023/05/11 07:39:21;;;;;;;13.13;8.00;;;12.30;99.90;;;;;;6232580;22;20497;-68
2023/05/11 07:41:48;;;;;;;11.38;7.43;;;12.30;99.90;;;;;;6232643;22;20235;-68
2023/05/11 07:44:15;;;;;;;11.98;8.23;;;12.40;99.90;;;;;;6242161;22;20212;-68
2023/05/11 07:46:43;;;;;;;15.85;9.00;;;12.50;99.90;;;;;;6235685;22;20180;-67
2023/05/11 07:49:10;;;;;;;14.70;9.07;;;12.50;99.90;;;;;;6238032;22;20427;-68
2023/05/11 07:51:37;;;;;;;15.80;9.18;;;12.50;99.90;;;;;;6248045;22;20279;-68
2023/05/11 07:54:04;;;;;;;12.32;8.45;;;12.50;99.90;;;;;;6219003;22;20511;-68
2023/05/11 07:56:31;;;;;;;16.35;9.93;;;12.50;99.90;;;;;;6239912;22;20238;-68
2023/05/11 07:58:58;;;;;;;14.25;9.65;;;12.50;99.90;;;;;;6244611;22;20420;-67
2023/05/11 08:01:25;;;;;;;14.57;9.07;;;12.50;99.90;;;;;;6236768;22;20204;-67
2023/05/11 08:03:53;;;;;;;14.80;8.48;;;12.60;99.90;;;;;;6236638;22;20501;-67
2023/05/11 08:06:20;;;;;;;12.60;8.60;;;12.70;99.90;;;;;;6247809;22;20208;-68
2023/05/11 08:08:47;;;;;;;14.20;9.02;;;12.70;99.90;;;;;;6222770;22;20663;-67
2023/05/11 08:11:14;;;;;;;13.45;8.32;;;12.80;99.90;;;;;;6238495;22;20492;-68
2023/05/11 08:13:41;;;;;;;13.27;8.45;;;12.80;99.90;;;;;;6248588;22;20885;-68
2023/05/11 08:16:08;;;;;;;13.95;9.05;;;12.90;99.90;;;;;;6244895;22;20763;-68
2023/05/11 08:18:35;;;;;;;12.93;8.13;;;12.90;99.90;;;;;;6250798;22;20564;-68
2023/05/11 08:21:03;;;;;;;12.18;7.38;;;12.90;99.90;;;;;;6237758;22;20415;-68
2023/05/11 08:23:30;;;;;;;9.80;6.85;;;12.80;99.90;;;;;;6226382;22;20888;-68
2023/05/11 08:25:57;;;;;;;10.98;7.60;;;12.90;99.90;;;;;;6237603;22;20273;-68
2023/05/11 08:28:24;;;;;;;12.25;7.97;;;13.00;99.90;;;;;;6248298;22;20417;-68
2023/05/11 08:30:55;;;;;;;11.15;7.60;;;12.90;99.90;;;;;;6243270;22;20176;-68
2023/05/11 08:33:22;;;;;;;12.43;7.57;;;12.90;99.90;;;;;;6247911;22;20490;-68
2023/05/11 08:35:49;;;;;;;11.88;7.93;;;12.90;99.90;;;;;;6241274;22;20313;-67
2023/05/11 08:38:17;;;;;;;12.75;7.45;;;12.90;99.90;;;;;;6227741;22;20260;-68
2023/05/11 08:40:47;;;;;;;10.43;6.97;;;12.90;99.90;;;;;;6253154;22;20588;-68
2023/05/11 08:43:15;;;;;;;10.32;7.20;;;13.00;99.90;;;;;;6236507;22;20215;-67
2023/05/11 08:45:43;;;;;;;12.55;7.60;;;13.10;99.90;;;;;;6251040;22;20176;-67
2023/05/11 08:48:10;;;;;;;10.45;7.28;;;13.10;99.90;;;;;;6247811;22;20486;-68
2023/05/11 08:50:37;;;;;;;16.17;8.48;;;13.20;99.90;;;;;;6243021;22;20222;-67
2023/05/11 08:53:04;;;;;;;12.43;7.32;;;13.30;99.90;;;;;;6234330;22;20208;-67
2023/05/11 08:55:34;;;;;;;11.60;7.80;;;13.20;99.90;;;;;;6240009;22;20752;-67
2023/05/11 08:58:04;;;;;;;13.70;6.72;;;13.20;99.90;;;;;;6238452;22;20196;-68
2023/05/11 09:00:32;;;;;;;10.35;6.72;;;13.10;99.90;;;;;;6249277;22;21111;-68
2023/05/11 09:02:59;;;;;;;10.00;6.82;;;13.20;99.90;;;;;;6250270;22;20203;-67
2023/05/11 09:05:27;;;;;;;11.93;7.70;;;13.10;99.90;;;;;;6237710;22;20563;-67
2023/05/11 09:07:59;;;;;;;11.40;7.47;;;13.10;99.90;;;;;;6248994;22;20556;-67
2023/05/11 09:10:26;;;;;;;11.80;7.10;;;13.20;99.90;;;;;;6227896;22;20231;-68
2023/05/11 09:12:54;;;;;;;11.05;6.63;;;13.30;99.90;;;;;;6242334;22;20265;-67
2023/05/11 09:15:21;;;;;;;11.35;7.25;;;13.40;99.90;;;;;;6246165;22;20389;-68
2023/05/11 09:17:48;;;;;;;11.30;7.25;;;13.40;99.90;;;;;;6250838;22;20302;-67
2023/05/11 09:20:15;;;;;;;11.07;6.88;;;13.40;99.90;;;;;;6247487;22;20196;-68
2023/05/11 09:22:44;;;;;;;9.50;6.05;;;13.40;99.90;;;;;;6242336;22;20287;-68
2023/05/11 09:25:12;;;;;;;11.20;7.15;;;13.40;99.90;;;;;;6232339;22;20176;-69
2023/05/11 09:27:43;;;;;;;11.82;6.60;;;13.40;99.90;;;;;;6252621;22;20843;-68
2023/05/11 09:30:13;;;;;;;8.32;5.90;;;13.50;99.90;;;;;;6239172;22;20211;-68
2023/05/11 09:32:50;;;;;;;10.65;6.07;;;13.50;99.90;;;;;;6251628;22;20256;-67
2023/05/11 09:35:24;;;;;;;10.23;6.18;;;13.60;99.90;;;;;;6245785;22;20187;-67
2023/05/11 09:38:03;;;;;;;12.73;6.15;;;13.60;99.90;;;;;;6240553;22;20176;-68
2023/05/11 09:40:31;;;;;;;8.95;5.78;;;13.60;99.90;;;;;;6247374;22;20415;-68
2023/05/11 09:42:58;;;;;;;9.35;5.63;;;13.60;99.90;;;;;;6231708;22;20235;-68
2023/05/11 09:45:37;;;;;;;7.38;5.07;;;13.50;99.40;;;;;;6232425;22;20200;-68
2023/05/11 09:48:04;;;;;;;6.97;5.53;;;13.70;99.90;;;;;;6248051;22;20172;-67
2023/05/11 09:50:35;;;;;;;8.13;5.50;;;13.70;99.90;;;;;;6240079;22;20411;-68
2023/05/11 09:53:02;;;;;;;15.00;6.43;;;13.70;99.90;;;;;;6240894;22;20195;-67
2023/05/11 09:55:29;;;;;;;10.32;5.30;;;13.80;99.90;;;;;;6249621;22;20237;-67
2023/05/11 09:57:58;;;;;;;7.60;5.55;;;13.70;97.90;;;;;;6233159;22;20235;-67
2023/05/11 10:00:26;;;;;;;6.85;5.15;;;13.90;99.90;;;;;;6237161;22;20730;-67
2023/05/11 10:03:02;;;;;;;10.75;6.70;;;13.90;99.90;;;;;;6245707;22;21016;-67
2023/05/11 10:05:31;;;;;;;8.02;5.63;;;13.90;99.90;;;;;;6247250;22;21283;-68
2023/05/11 10:07:59;;;;;;;8.82;5.50;;;13.90;99.90;;;;;;6229753;22;20472;-68
2023/05/11 10:10:29;;;;;;;11.10;7.75;;;13.90;99.90;;;;;;6233858;22;20290;-67
2023/05/11 10:12:57;;;;;;;8.65;5.47;;;13.90;99.90;;;;;;6236203;22;20279;-68
2023/05/11 10:15:26;;;;;;;7.45;4.93;;;13.90;99.90;;;;;;6232096;22;20561;-68
2023/05/11 10:17:54;;;;;;;8.25;5.82;;;13.90;99.90;;;;;;6253178;22;20251;-68
2023/05/11 10:20:23;;;;;;;6.95;5.32;;;13.90;99.90;;;;;;6252296;22;20176;-68
2023/05/11 10:22:52;;;;;;;8.25;5.90;;;13.80;99.90;;;;;;6252878;22;20243;-67
2023/05/11 10:25:21;;;;;;;7.90;6.07;;;13.90;99.90;;;;;;6242861;22;20178;-68
2023/05/11 10:27:48;;;;;;;8.90;5.50;;;13.90;99.90;;;;;;6246397;22;20202;-68
2023/05/11 10:30:16;;;;;;;7.95;5.53;;;14.00;99.90;;;;;;6222058;22;20231;-68
2023/05/11 10:32:44;;;;;;;9.18;5.53;;;13.90;99.90;;;;;;6252432;22;20230;-67
2023/05/11 10:35:11;;;;;;;9.20;5.68;;;13.80;99.90;;;;;;6249306;22;20180;-68
2023/05/11 10:37:41;;;;;;;7.93;5.22;;;13.80;99.90;;;;;;6250632;22;20203;-67
2023/05/11 10:40:09;;;;;;;10.15;5.55;;;13.70;99.90;;;;;;6240493;22;21072;-67
2023/05/11 10:43:08;;;;;;;8.40;5.13;;;13.80;99.90;;;;;;6245569;22;20206;-68
2023/05/11 10:45:42;;;;;;;9.00;5.32;;;13.90;99.90;;;;;;6245519;22;20258;-68
2023/05/11 10:48:40;;;;;;;8.02;5.15;;;14.00;99.90;;;;;;6239754;22;20224;-68
2023/05/11 10:51:25;;;;;;;10.38;5.65;;;14.00;99.90;;;;;;6209900;22;20172;-68
2023/05/11 10:54:10;;;;;;;7.13;5.28;;;14.00;99.90;;;;;;6255125;22;20176;-68
2023/05/11 10:57:08;;;;;;;8.40;5.60;;;14.00;99.90;;;;;;6239112;22;20268;-69
2023/05/11 10:59:56;;;;;;;7.38;4.30;;;14.10;99.90;;;;;;6224584;22;20224;-68
2023/05/11 11:02:24;;;;;;;12.27;6.13;;;14.00;99.90;;;;;;6243276;22;20204;-68
2023/05/11 11:04:51;;;;;;;7.68;5.55;;;14.00;99.90;;;;;;6239160;22;20183;-68
2023/05/11 11:07:19;;;;;;;8.80;5.45;;;14.00;99.90;;;;;;6247782;22;20701;-68
2023/05/11 11:09:59;;;;;;;11.50;5.47;;;14.00;99.90;;;;;;6242128;22;20184;-69
2023/05/11 11:12:27;;;;;;;11.35;5.60;;;14.00;99.90;;;;;;6250475;22;20231;-68
2023/05/11 11:14:56;;;;;;;7.32;5.07;;;14.00;99.90;;;;;;6219014;22;20183;-68
2023/05/11 11:17:25;;;;;;;6.25;4.80;;;14.00;99.90;;;;;;6240844;22;20207;-68
2023/05/11 11:19:53;;;;;;;8.00;5.03;;;14.10;99.90;;;;;;6240775;22;20176;-68
2023/05/11 11:22:45;;;;;;;8.13;4.93;;;14.20;99.90;;;;;;6246389;22;20292;-68
2023/05/11 11:25:15;;;;;;;7.05;4.82;;;14.10;99.90;;;;;;6238984;22;20219;-69
2023/05/11 11:27:58;;;;;;;8.70;4.93;;;14.10;99.90;;;;;;6253566;22;20889;-69
2023/05/11 11:30:27;;;;;;;6.22;4.57;;;14.10;99.90;;;;;;6223430;22;20686;-69
2023/05/11 11:32:55;;;;;;;9.02;4.50;;;14.10;99.90;;;;;;6251699;22;20176;-69
2023/05/11 11:35:47;;;;;;;7.10;4.88;;;14.10;99.80;;;;;;6230220;22;21107;-68
2023/05/11 11:38:16;;;;;;;8.68;5.07;;;14.20;99.90;;;;;;6248837;22;20237;-69
2023/05/11 11:40:46;;;;;;;6.45;4.45;;;14.20;99.90;;;;;;6244689;22;20183;-69
2023/05/11 11:43:16;;;;;;;5.53;4.30;;;14.20;99.90;;;;;;6243976;22;20203;-68
2023/05/11 11:45:51;;;;;;;6.97;4.97;;;14.20;99.90;;;;;;6253711;22;20187;-68
2023/05/11 11:48:22;;;;;;;6.57;4.72;;;14.20;99.90;;;;;;6232771;22;20184;-68
2023/05/11 11:50:50;;;;;;;8.95;4.30;;;14.30;99.90;;;;;;6237990;22;20230;-68
2023/05/11 11:54:07;;;;;;;7.70;4.95;;;14.20;99.90;;;;;;6249928;22;20172;-68
2023/05/11 11:56:40;;;;;;;5.70;4.35;;;14.20;99.90;;;;;;6226928;22;20176;-68
2023/05/11 11:59:10;;;;;;;6.07;4.38;;;14.20;99.90;;;;;;6235989;22;20250;-69
2023/05/11 12:01:38;;;;;;;4.78;4.25;;;14.20;99.90;;;;;;6238867;22;20200;-69
2023/05/11 12:04:49;;;;;;;7.00;4.65;;;14.30;99.90;;;;;;6231285;22;20211;-69
2023/05/11 12:07:21;;;;;;;5.78;4.40;;;14.30;99.90;;;;;;6139702;23;20201;-68
2023/05/11 12:09:48;;;;;;;5.35;4.28;;;14.30;99.90;;;;;;6156685;23;20962;-68
2023/05/11 12:12:19;;;;;;;5.65;4.22;;;14.30;99.90;;;;;;6199561;22;20686;-68
2023/05/11 12:14:48;;;;;;;4.93;4.13;;;14.30;99.90;;;;;;6248389;22;20212;-68
2023/05/11 12:17:22;;;;;;;7.32;4.50;;;14.30;99.90;;;;;;6241384;22;20179;-68
2023/05/11 12:19:49;;;;;;;4.85;3.70;;;14.40;99.90;;;;;;6244653;22;20181;-69
2023/05/11 12:22:22;;;;;;;5.10;4.50;;;14.50;99.90;;;;;;6236233;22;20235;-68
2023/05/11 12:24:49;;;;;;;5.95;4.72;;;14.40;99.90;;;;;;6249892;22;20640;-69
2023/05/11 12:27:18;;;;;;;5.25;4.68;;;14.40;99.90;;;;;;6242560;22;20263;-68
2023/05/11 12:29:49;;;;;;;6.63;5.25;;;14.30;98.40;;;;;;6245372;22;20176;-69
2023/05/11 12:32:24;;;;;;;6.93;5.47;;;14.40;99.90;;;;;;6252547;22;20180;-68
2023/05/11 12:34:58;;;;;;;5.75;4.95;;;14.30;99.90;;;;;;6234560;22;20184;-69
2023/05/11 12:37:25;;;;;;;4.43;4.00;;;14.30;99.90;;;;;;6235063;22;20178;-68
2023/05/11 12:39:54;;;;;;;5.72;4.63;;;14.40;99.90;;;;;;6245468;22;20176;-68
2023/05/11 12:42:23;;;;;;;7.38;5.50;;;14.40;99.90;;;;;;6245877;22;20199;-68
2023/05/11 12:44:50;;;;;;;7.13;5.22;;;14.40;99.90;;;;;;6245534;22;20196;-68
2023/05/11 12:47:17;;;;;;;6.32;4.50;;;14.50;99.90;;;;;;6242104;22;20211;-68